createdAt,value
2019-05-14T00:00:44.248Z,0.00
2019-05-14T00:01:44.232Z,0.00
2019-05-14T00:02:44.186Z,0.00
2019-05-14T00:03:44.173Z,0.00
2019-05-14T00:04:44.171Z,0.00
2019-05-14T00:05:44.183Z,0.00
2019-05-14T00:06:44.165Z,0.00
2019-05-14T00:07:44.162Z,0.00
2019-05-14T00:08:44.164Z,0.00
2019-05-14T00:09:44.113Z,0.00
2019-05-14T00:10:44.112Z,0.00
2019-05-14T00:11:44.089Z,0.00
2019-05-14T00:12:44.095Z,0.00
2019-05-14T00:13:44.132Z,0.00
2019-05-14T00:14:44.154Z,0.00
2019-05-14T00:15:44.043Z,0.00
2019-05-14T00:16:44.032Z,0.00
2019-05-14T00:17:44.030Z,0.00
2019-05-14T00:18:44.039Z,0.00
2019-05-14T00:19:44.001Z,0.00
2019-05-14T00:20:44.008Z,0.00
2019-05-14T00:21:43.985Z,0.00
2019-05-14T00:22:43.964Z,0.00
2019-05-14T00:23:43.971Z,0.00
2019-05-14T00:24:43.974Z,0.00
2019-05-14T00:25:43.935Z,0.00
2019-05-14T00:26:43.941Z,0.00
2019-05-14T00:27:43.919Z,0.00
2019-05-14T00:28:43.900Z,0.00
2019-05-14T00:29:43.909Z,0.00
2019-05-14T00:30:43.877Z,0.00
2019-05-14T00:31:43.867Z,0.00
2019-05-14T00:32:43.868Z,0.00
2019-05-14T00:33:43.867Z,0.00
2019-05-14T00:34:43.877Z,0.00
2019-05-14T00:35:43.844Z,0.00
2019-05-14T00:36:43.810Z,0.00
2019-05-14T00:37:43.802Z,0.00
2019-05-14T00:38:43.815Z,0.00
2019-05-14T00:39:43.799Z,0.00
2019-05-14T00:40:43.800Z,0.00
2019-05-14T00:41:43.772Z,0.00
2019-05-14T00:42:43.746Z,0.00
2019-05-14T00:43:43.734Z,0.00
2019-05-14T00:44:54.348Z,0.00
2019-05-14T00:45:44.740Z,0.00
2019-05-14T00:46:43.714Z,0.00
2019-05-14T00:47:43.705Z,0.00
2019-05-14T00:48:43.690Z,0.00
2019-05-14T00:49:43.672Z,0.00
2019-05-14T00:50:43.731Z,0.00
2019-05-14T00:51:43.650Z,0.00
2019-05-14T00:52:46.290Z,0.00
2019-05-14T00:53:43.647Z,0.00
2019-05-14T00:54:43.617Z,0.00
2019-05-14T00:55:43.642Z,0.00
2019-05-14T00:56:43.624Z,0.00
2019-05-14T00:57:43.584Z,0.00
2019-05-14T00:58:43.587Z,0.00
2019-05-14T00:59:43.567Z,0.00
2019-05-14T01:00:43.557Z,0.00
2019-05-14T01:01:43.560Z,0.00
2019-05-14T01:02:43.569Z,0.00
2019-05-14T01:03:43.520Z,0.00
2019-05-14T01:04:43.528Z,0.00
2019-05-14T01:05:43.503Z,0.00
2019-05-14T01:06:43.531Z,0.00
2019-05-14T01:07:43.487Z,0.00
2019-05-14T01:08:43.476Z,0.00
2019-05-14T01:09:43.466Z,0.00
2019-05-14T01:10:43.458Z,0.00
2019-05-14T01:11:43.472Z,0.00
2019-05-14T01:12:43.418Z,0.00
2019-05-14T01:13:43.412Z,0.00
2019-05-14T01:14:43.418Z,0.00
2019-05-14T01:15:43.443Z,0.00
2019-05-14T01:16:43.396Z,0.00
2019-05-14T01:17:43.375Z,0.00
2019-05-14T01:18:43.358Z,0.00
2019-05-14T01:19:43.343Z,0.00
2019-05-14T01:20:43.337Z,0.00
2019-05-14T01:21:43.374Z,0.00
2019-05-14T01:22:43.338Z,0.00
2019-05-14T01:23:43.306Z,0.00
2019-05-14T01:24:43.291Z,0.00
2019-05-14T01:25:43.300Z,0.00
2019-05-14T01:26:43.310Z,0.00
2019-05-14T01:27:43.282Z,0.00
2019-05-14T01:28:43.269Z,0.00
2019-05-14T01:29:43.247Z,0.00
2019-05-14T01:30:43.223Z,0.00
2019-05-14T01:31:43.244Z,0.00
2019-05-14T01:32:43.204Z,0.00
2019-05-14T01:33:43.219Z,0.00
2019-05-14T01:34:43.180Z,0.00
2019-05-14T01:35:43.171Z,0.00
2019-05-14T01:36:43.160Z,0.00
2019-05-14T01:37:43.168Z,0.00
2019-05-14T01:38:43.149Z,0.00
2019-05-14T01:39:43.167Z,0.00
2019-05-14T01:40:43.122Z,0.00
2019-05-14T01:41:43.151Z,0.00
2019-05-14T01:42:43.130Z,0.00
2019-05-14T01:43:43.083Z,0.00
2019-05-14T01:44:43.083Z,0.00
2019-05-14T01:45:43.074Z,0.00
2019-05-14T01:46:43.087Z,0.00
2019-05-14T01:47:43.051Z,0.00
2019-05-14T01:48:43.063Z,0.00
2019-05-14T01:49:43.040Z,0.00
2019-05-14T01:50:43.027Z,0.00
2019-05-14T01:51:43.017Z,0.00
2019-05-14T01:52:42.984Z,0.00
2019-05-14T01:53:43.067Z,0.00
2019-05-14T01:54:42.970Z,0.00
2019-05-14T01:55:42.957Z,0.00
2019-05-14T01:56:42.958Z,0.00
2019-05-14T01:57:42.930Z,0.00
2019-05-14T01:58:42.963Z,0.00
2019-05-14T01:59:43.110Z,0.00
2019-05-14T02:00:42.910Z,0.00
2019-05-14T02:01:42.888Z,0.00
2019-05-14T02:02:42.883Z,0.00
2019-05-14T02:03:42.898Z,0.00
2019-05-14T02:04:43.042Z,0.00
2019-05-14T02:05:42.851Z,0.00
2019-05-14T02:06:42.873Z,0.00
2019-05-14T02:07:42.826Z,0.00
2019-05-14T02:08:42.835Z,0.00
2019-05-14T02:09:42.831Z,0.00
2019-05-14T02:10:42.788Z,0.00
2019-05-14T02:11:42.778Z,0.00
2019-05-14T02:12:42.789Z,0.00
2019-05-14T02:13:42.766Z,0.00
2019-05-14T02:14:42.771Z,0.00
2019-05-14T02:15:43.132Z,0.00
2019-05-14T02:16:42.723Z,0.00
2019-05-14T02:17:42.717Z,0.00
2019-05-14T02:18:42.721Z,0.00
2019-05-14T02:19:42.825Z,0.00
2019-05-14T02:20:42.678Z,0.00
2019-05-14T02:21:42.733Z,0.00
2019-05-14T02:22:42.660Z,0.00
2019-05-14T02:23:42.660Z,0.00
2019-05-14T02:24:42.671Z,0.00
2019-05-14T02:25:42.659Z,0.00
2019-05-14T02:26:42.728Z,0.00
2019-05-14T02:27:42.611Z,0.00
2019-05-14T02:28:42.589Z,0.00
2019-05-14T02:29:42.591Z,0.00
2019-05-14T02:30:51.490Z,0.00
2019-05-14T02:31:42.611Z,0.00
2019-05-14T02:32:42.551Z,0.00
2019-05-14T02:33:42.538Z,0.00
2019-05-14T02:34:42.528Z,0.00
2019-05-14T02:35:42.544Z,0.00
2019-05-14T02:36:42.516Z,0.00
2019-05-14T02:37:42.508Z,0.00
2019-05-14T02:38:42.481Z,0.00
2019-05-14T02:39:42.477Z,0.00
2019-05-14T02:40:42.487Z,0.00
2019-05-14T02:41:42.459Z,0.00
2019-05-14T02:42:42.453Z,0.00
2019-05-14T02:43:42.446Z,0.00
2019-05-14T02:44:42.417Z,0.00
2019-05-14T02:46:00.814Z,0.00
2019-05-14T02:46:42.471Z,0.00
2019-05-14T02:47:42.384Z,0.00
2019-05-14T02:48:42.391Z,0.00
2019-05-14T02:49:42.359Z,0.00
2019-05-14T02:50:42.349Z,0.00
2019-05-14T02:51:42.410Z,0.00
2019-05-14T02:52:42.344Z,0.00
2019-05-14T02:53:42.320Z,0.00
2019-05-14T02:54:42.400Z,0.00
2019-05-14T02:55:42.298Z,0.00
2019-05-14T02:56:42.332Z,0.00
2019-05-14T02:57:42.303Z,0.00
2019-05-14T02:58:42.266Z,0.00
2019-05-14T02:59:42.261Z,0.00
2019-05-14T03:00:42.278Z,0.00
2019-05-14T03:01:42.245Z,0.00
2019-05-14T03:02:42.241Z,0.00
2019-05-14T03:03:42.226Z,0.00
2019-05-14T03:04:42.200Z,0.00
2019-05-14T03:05:42.208Z,0.00
2019-05-14T03:06:42.179Z,0.00
2019-05-14T03:07:42.214Z,0.00
2019-05-14T03:08:42.153Z,0.00
2019-05-14T03:09:42.152Z,0.00
2019-05-14T03:10:42.150Z,0.00
2019-05-14T03:11:42.122Z,0.00
2019-05-14T03:12:42.106Z,0.00
2019-05-14T03:13:42.124Z,0.00
2019-05-14T03:14:42.086Z,0.00
2019-05-14T03:15:42.090Z,0.00
2019-05-14T03:16:42.072Z,0.00
2019-05-14T03:17:42.097Z,0.00
2019-05-14T03:18:42.069Z,0.00
2019-05-14T03:19:42.046Z,0.00
2019-05-14T03:20:42.028Z,0.00
2019-05-14T03:21:42.031Z,0.00
2019-05-14T03:22:55.899Z,0.00
2019-05-14T03:23:42.035Z,0.00
2019-05-14T03:24:41.974Z,0.00
2019-05-14T03:25:41.965Z,0.00
2019-05-14T03:26:41.964Z,0.00
2019-05-14T03:27:41.950Z,0.00
2019-05-14T03:28:41.943Z,0.00
2019-05-14T03:29:41.948Z,0.00
2019-05-14T03:30:42.883Z,0.00
2019-05-14T03:31:43.343Z,0.00
2019-05-14T03:32:43.129Z,0.00
2019-05-14T03:33:44.015Z,0.00
2019-05-14T03:34:43.549Z,0.00
2019-05-14T03:35:49.482Z,0.00
2019-05-14T03:36:43.377Z,0.00
2019-05-14T03:37:41.831Z,0.00
2019-05-14T03:38:41.829Z,0.00
2019-05-14T03:39:41.853Z,0.00
2019-05-14T03:40:41.807Z,0.00
2019-05-14T03:41:41.794Z,0.00
2019-05-14T03:42:41.780Z,0.00
2019-05-14T03:43:41.805Z,0.00
2019-05-14T03:44:41.770Z,0.00
2019-05-14T03:45:41.783Z,0.00
2019-05-14T03:46:51.325Z,0.00
2019-05-14T03:47:41.723Z,0.00
2019-05-14T03:48:41.713Z,0.00
2019-05-14T03:49:41.714Z,0.00
2019-05-14T03:50:41.718Z,5.62
2019-05-14T03:51:41.690Z,5.62
2019-05-14T03:52:41.686Z,5.62
2019-05-14T03:53:55.057Z,5.62
2019-05-14T03:54:41.656Z,5.62
2019-05-14T03:55:41.654Z,5.62
2019-05-14T03:56:41.682Z,5.62
2019-05-14T03:57:41.623Z,5.62
2019-05-14T03:58:41.615Z,5.62
2019-05-14T03:59:41.698Z,5.62
2019-05-14T04:00:41.580Z,5.62
2019-05-14T04:01:41.606Z,5.62
2019-05-14T04:02:41.566Z,5.62
2019-05-14T04:03:41.564Z,5.62
2019-05-14T04:04:41.536Z,5.62
2019-05-14T04:05:41.537Z,5.62
2019-05-14T04:06:41.540Z,5.62
2019-05-14T04:07:41.515Z,5.62
2019-05-14T04:08:41.505Z,5.62
2019-05-14T04:09:41.497Z,5.62
2019-05-14T04:10:49.169Z,5.62
2019-05-14T04:11:41.517Z,5.62
2019-05-14T04:12:41.455Z,5.62
2019-05-14T04:13:41.483Z,5.62
2019-05-14T04:14:41.448Z,5.62
2019-05-14T04:15:41.433Z,5.62
2019-05-14T04:16:59.508Z,5.62
2019-05-14T04:17:42.462Z,5.62
2019-05-14T04:18:41.382Z,5.62
2019-05-14T04:19:41.371Z,5.62
2019-05-14T04:20:41.387Z,5.62
2019-05-14T04:21:41.362Z,5.62
2019-05-14T04:22:41.386Z,5.62
2019-05-14T04:23:41.335Z,5.62
2019-05-14T04:24:41.814Z,11.25
2019-05-14T04:25:41.315Z,11.25
2019-05-14T04:26:56.204Z,11.25
2019-05-14T04:27:42.354Z,11.25
2019-05-14T04:28:41.277Z,11.25
2019-05-14T04:29:41.261Z,11.25
2019-05-14T04:30:41.261Z,11.25
2019-05-14T04:31:41.244Z,11.25
2019-05-14T04:32:41.346Z,11.25
2019-05-14T04:33:41.265Z,16.88
2019-05-14T04:34:41.210Z,16.88
2019-05-14T04:35:41.198Z,16.88
2019-05-14T04:36:41.198Z,16.88
2019-05-14T04:37:41.183Z,16.88
2019-05-14T04:38:41.347Z,16.88
2019-05-14T04:39:41.155Z,16.88
2019-05-14T04:40:41.163Z,16.88
2019-05-14T04:41:41.133Z,16.88
2019-05-14T04:42:41.117Z,16.88
2019-05-14T04:43:41.154Z,16.88
2019-05-14T04:44:41.120Z,16.88
2019-05-14T04:45:41.085Z,16.88
2019-05-14T04:46:41.079Z,16.88
2019-05-14T04:47:42.337Z,16.88
2019-05-14T04:48:43.483Z,16.88
2019-05-14T04:49:41.074Z,16.88
2019-05-14T04:50:41.053Z,16.88
2019-05-14T04:51:41.030Z,16.88
2019-05-14T04:52:41.124Z,22.50
2019-05-14T04:53:41.023Z,22.50
2019-05-14T04:54:41.023Z,22.50
2019-05-14T04:55:40.992Z,22.50
2019-05-14T04:56:40.987Z,16.88
2019-05-14T04:57:40.953Z,11.25
2019-05-14T04:58:41.470Z,11.25
2019-05-14T04:59:40.946Z,16.88
2019-05-14T05:00:40.952Z,16.88
2019-05-14T05:01:40.941Z,16.88
2019-05-14T05:02:40.904Z,16.88
2019-05-14T05:03:40.892Z,16.88
2019-05-14T05:04:41.568Z,22.50
2019-05-14T05:05:40.892Z,16.88
2019-05-14T05:06:40.874Z,22.50
2019-05-14T05:07:40.894Z,16.88
2019-05-14T05:08:40.835Z,22.50
2019-05-14T05:09:40.870Z,16.88
2019-05-14T05:10:40.814Z,22.50
2019-05-14T05:11:40.833Z,22.50
2019-05-14T05:12:40.795Z,22.50
2019-05-14T05:13:40.805Z,22.50
2019-05-14T05:14:40.765Z,28.12
2019-05-14T05:15:40.761Z,33.75
2019-05-14T05:16:40.777Z,28.12
2019-05-14T05:17:48.041Z,33.75
2019-05-14T05:18:40.735Z,28.12
2019-05-14T05:19:45.027Z,28.12
2019-05-14T05:20:40.703Z,28.12
2019-05-14T05:21:40.709Z,28.12
2019-05-14T05:22:40.694Z,28.12
2019-05-14T05:23:40.666Z,28.12
2019-05-14T05:24:40.659Z,28.12
2019-05-14T05:25:40.675Z,28.12
2019-05-14T05:26:40.654Z,28.12
2019-05-14T05:27:40.626Z,33.75
2019-05-14T05:28:40.622Z,33.75
2019-05-14T05:29:40.606Z,33.75
2019-05-14T05:30:40.596Z,33.75
2019-05-14T05:31:40.615Z,33.75
2019-05-14T05:32:40.576Z,33.75
2019-05-14T05:33:40.560Z,33.75
2019-05-14T05:34:40.572Z,28.12
2019-05-14T05:35:42.401Z,22.50
2019-05-14T05:36:40.554Z,22.50
2019-05-14T05:37:40.545Z,22.50
2019-05-14T05:38:40.501Z,22.50
2019-05-14T05:39:40.494Z,22.50
2019-05-14T05:40:40.523Z,22.50
2019-05-14T05:41:40.477Z,28.12
2019-05-14T05:42:40.484Z,33.75
2019-05-14T05:43:40.451Z,39.38
2019-05-14T05:44:40.439Z,39.38
2019-05-14T05:45:40.432Z,39.38
2019-05-14T05:46:43.134Z,39.38
2019-05-14T05:47:53.242Z,39.38
2019-05-14T05:48:40.418Z,39.38
2019-05-14T05:49:40.387Z,39.38
2019-05-14T05:50:40.377Z,39.38
2019-05-14T05:51:40.384Z,28.12
2019-05-14T05:52:40.357Z,28.12
2019-05-14T05:53:40.366Z,33.75
2019-05-14T05:54:40.374Z,28.12
2019-05-14T05:55:40.361Z,28.12
2019-05-14T05:56:40.312Z,28.12
2019-05-14T05:57:40.305Z,28.12
2019-05-14T05:58:40.319Z,22.50
2019-05-14T05:59:40.297Z,22.50
2019-05-14T06:00:40.493Z,22.50
2019-05-14T06:01:45.972Z,22.50
2019-05-14T06:02:41.241Z,22.50
2019-05-14T06:03:40.283Z,22.50
2019-05-14T06:04:40.263Z,22.50
2019-05-14T06:05:40.218Z,22.50
2019-05-14T06:06:40.200Z,22.50
2019-05-14T06:07:40.194Z,22.50
2019-05-14T06:08:40.178Z,22.50
2019-05-14T06:09:40.188Z,22.50
2019-05-14T06:10:40.211Z,22.50
2019-05-14T06:11:40.153Z,22.50
2019-05-14T06:12:40.136Z,22.50
2019-05-14T06:13:40.195Z,22.50
2019-05-14T06:14:40.224Z,22.50
2019-05-14T06:15:48.295Z,22.50
2019-05-14T06:16:41.112Z,22.50
2019-05-14T06:17:40.106Z,22.50
2019-05-14T06:18:40.076Z,22.50
2019-05-14T06:19:40.106Z,22.50
2019-05-14T06:20:40.048Z,22.50
2019-05-14T06:21:40.034Z,22.50
2019-05-14T06:22:40.039Z,22.50
2019-05-14T06:23:40.027Z,22.50
2019-05-14T06:24:40.012Z,22.50
2019-05-14T06:25:40.267Z,22.50
2019-05-14T06:26:39.991Z,22.50
2019-05-14T06:27:39.967Z,22.50
2019-05-14T06:28:41.066Z,22.50
2019-05-14T06:29:39.946Z,22.50
2019-05-14T06:30:39.989Z,22.50
2019-05-14T06:31:39.949Z,22.50
2019-05-14T06:32:39.925Z,22.50
2019-05-14T06:33:39.908Z,22.50
2019-05-14T06:34:39.910Z,22.50
2019-05-14T06:35:40.050Z,22.50
2019-05-14T06:36:39.882Z,22.50
2019-05-14T06:37:39.878Z,22.50
2019-05-14T06:38:40.058Z,22.50
2019-05-14T06:39:39.847Z,22.50
2019-05-14T06:40:39.838Z,22.50
2019-05-14T06:41:42.794Z,22.50
2019-05-14T06:42:39.805Z,22.50
2019-05-14T06:43:39.795Z,22.50
2019-05-14T06:44:39.780Z,22.50
2019-05-14T06:45:39.781Z,22.50
2019-05-14T06:46:39.794Z,22.50
2019-05-14T06:47:39.748Z,22.50
2019-05-14T06:48:39.897Z,22.50
2019-05-14T06:49:39.738Z,22.50
2019-05-14T06:50:39.743Z,22.50
2019-05-14T06:51:39.759Z,22.50
2019-05-14T06:52:39.736Z,22.50
2019-05-14T06:53:39.685Z,22.50
2019-05-14T06:54:39.673Z,22.50
2019-05-14T06:55:39.680Z,22.50
2019-05-14T06:56:39.669Z,22.50
2019-05-14T06:57:39.677Z,22.50
2019-05-14T06:58:39.651Z,22.50
2019-05-14T06:59:40.664Z,28.12
2019-05-14T07:00:39.698Z,28.12
2019-05-14T07:01:39.631Z,28.12
2019-05-14T07:02:43.591Z,28.12
2019-05-14T07:03:39.616Z,28.12
2019-05-14T07:04:39.706Z,28.12
2019-05-14T07:05:39.554Z,28.12
2019-05-14T07:06:39.569Z,28.12
2019-05-14T07:07:40.629Z,28.12
2019-05-14T07:08:39.568Z,28.12
2019-05-14T07:09:39.532Z,28.12
2019-05-14T07:10:39.653Z,28.12
2019-05-14T07:11:39.492Z,28.12
2019-05-14T07:12:39.482Z,28.12
2019-05-14T07:13:39.505Z,28.12
2019-05-14T07:14:39.470Z,11.25
2019-05-14T07:15:39.462Z,16.88
2019-05-14T07:16:39.445Z,16.88
2019-05-14T07:17:39.426Z,28.12
2019-05-14T07:18:52.801Z,28.12
2019-05-14T07:19:40.422Z,33.75
2019-05-14T07:20:39.442Z,33.75
2019-05-14T07:21:39.414Z,16.88
2019-05-14T07:22:39.392Z,28.12
2019-05-14T07:23:39.356Z,33.75
2019-05-14T07:24:40.633Z,28.12
2019-05-14T07:25:39.516Z,33.75
2019-05-14T07:26:39.337Z,28.12
2019-05-14T07:27:39.466Z,16.88
2019-05-14T07:28:42.071Z,16.88
2019-05-14T07:29:39.315Z,16.88
2019-05-14T07:30:39.640Z,16.88
2019-05-14T07:31:39.271Z,16.88
2019-05-14T07:32:39.734Z,16.88
2019-05-14T07:33:39.286Z,16.88
2019-05-14T07:34:39.237Z,11.25
2019-05-14T07:35:40.520Z,11.25
2019-05-14T07:36:39.222Z,11.25
2019-05-14T07:37:39.819Z,11.25
2019-05-14T07:38:39.434Z,16.88
2019-05-14T07:39:39.224Z,16.88
2019-05-14T07:40:39.329Z,16.88
2019-05-14T07:41:39.262Z,16.88
2019-05-14T07:42:39.204Z,28.12
2019-05-14T07:43:39.533Z,33.75
2019-05-14T07:44:39.265Z,33.75
2019-05-14T07:45:39.154Z,22.50
2019-05-14T07:46:39.127Z,33.75
2019-05-14T07:47:39.177Z,28.12
2019-05-14T07:48:39.487Z,33.75
2019-05-14T07:49:39.098Z,39.38
2019-05-14T07:50:39.846Z,39.38
2019-05-14T07:51:39.058Z,39.38
2019-05-14T07:52:45.508Z,22.50
2019-05-14T07:53:42.366Z,22.50
2019-05-14T07:54:39.149Z,28.12
2019-05-14T07:55:39.012Z,28.12
2019-05-14T07:56:39.022Z,22.50
2019-05-14T07:57:39.435Z,16.88
2019-05-14T07:58:39.037Z,16.88
2019-05-14T07:59:38.972Z,16.88
2019-05-14T08:00:40.273Z,16.88
2019-05-14T08:01:39.005Z,33.75
2019-05-14T08:02:38.990Z,39.38
2019-05-14T08:03:38.938Z,39.38
2019-05-14T08:04:38.932Z,39.38
2019-05-14T08:05:39.210Z,22.50
2019-05-14T08:06:39.503Z,22.50
2019-05-14T08:07:38.998Z,22.50
2019-05-14T08:08:38.863Z,22.50
2019-05-14T08:09:39.150Z,28.12
2019-05-14T08:10:39.295Z,39.38
2019-05-14T08:11:38.992Z,22.50
2019-05-14T08:12:39.295Z,16.88
2019-05-14T08:13:39.457Z,22.50
2019-05-14T08:14:53.185Z,22.50
2019-05-14T08:15:39.903Z,22.50
2019-05-14T08:16:38.778Z,22.50
2019-05-14T08:17:38.925Z,22.50
2019-05-14T08:18:39.630Z,22.50
2019-05-14T08:19:38.826Z,28.12
2019-05-14T08:20:38.884Z,28.12
2019-05-14T08:21:38.909Z,28.12
2019-05-14T08:22:38.727Z,28.12
2019-05-14T08:23:39.317Z,45.00
2019-05-14T08:24:38.774Z,28.12
2019-05-14T08:25:39.140Z,22.50
2019-05-14T08:26:42.910Z,28.12
2019-05-14T08:27:39.069Z,28.12
2019-05-14T08:28:38.659Z,33.75
2019-05-14T08:29:40.105Z,33.75
2019-05-14T08:30:39.051Z,33.75
2019-05-14T08:31:38.612Z,50.62
2019-05-14T08:32:39.186Z,33.75
2019-05-14T08:33:39.745Z,33.75
2019-05-14T08:34:39.067Z,33.75
2019-05-14T08:35:39.528Z,33.75
2019-05-14T08:36:38.566Z,28.12
2019-05-14T08:37:38.876Z,28.12
2019-05-14T08:38:38.598Z,28.12
2019-05-14T08:39:39.391Z,39.38
2019-05-14T08:40:38.554Z,28.12
2019-05-14T08:41:38.636Z,45.00
2019-05-14T08:42:38.517Z,28.12
2019-05-14T08:43:39.690Z,22.50
2019-05-14T08:44:39.095Z,22.50
2019-05-14T08:45:38.958Z,22.50
2019-05-14T08:46:38.977Z,22.50
2019-05-14T08:47:39.049Z,22.50
2019-05-14T08:48:39.106Z,22.50
2019-05-14T08:49:45.869Z,28.12
2019-05-14T08:50:38.891Z,28.12
2019-05-14T08:51:38.948Z,28.12
2019-05-14T08:52:39.202Z,22.50
2019-05-14T08:53:38.870Z,22.50
2019-05-14T08:54:39.115Z,28.12
2019-05-14T08:55:38.391Z,28.12
2019-05-14T08:56:39.072Z,39.38
2019-05-14T08:57:38.864Z,39.38
2019-05-14T08:58:38.674Z,28.12
2019-05-14T08:59:39.643Z,28.12
2019-05-14T09:00:38.719Z,28.12
2019-05-14T09:01:38.838Z,33.75
2019-05-14T09:02:39.334Z,33.75
2019-05-14T09:03:39.265Z,33.75
2019-05-14T09:04:42.828Z,39.38
2019-05-14T09:05:38.698Z,45.00
2019-05-14T09:06:38.597Z,45.00
2019-05-14T09:07:38.528Z,45.00
2019-05-14T09:08:39.090Z,28.12
2019-05-14T09:09:38.407Z,28.12
2019-05-14T09:10:40.309Z,39.38
2019-05-14T09:11:44.515Z,28.12
2019-05-14T09:12:39.184Z,33.75
2019-05-14T09:13:38.477Z,33.75
2019-05-14T09:14:38.891Z,45.00
2019-05-14T09:15:38.554Z,28.12
2019-05-14T09:16:46.286Z,39.38
2019-05-14T09:17:39.065Z,50.62
2019-05-14T09:18:38.735Z,33.75
2019-05-14T09:19:40.838Z,33.75
2019-05-14T09:20:38.263Z,28.12
2019-05-14T09:21:39.823Z,22.50
2019-05-14T09:22:39.845Z,22.50
2019-05-14T09:23:39.158Z,22.50
2019-05-14T09:24:38.729Z,22.50
2019-05-14T09:25:47.342Z,39.38
2019-05-14T09:26:39.101Z,39.38
2019-05-14T09:27:38.937Z,39.38
2019-05-14T09:28:39.235Z,39.38
2019-05-14T09:29:39.453Z,39.38
2019-05-14T09:30:38.243Z,45.00
2019-05-14T09:31:39.105Z,45.00
2019-05-14T09:32:38.851Z,45.00
2019-05-14T09:33:38.893Z,50.62
2019-05-14T09:34:39.341Z,28.12
2019-05-14T09:35:38.653Z,28.12
2019-05-14T09:36:39.526Z,33.75
2019-05-14T09:37:39.504Z,33.75
2019-05-14T09:38:42.318Z,33.75
2019-05-14T09:39:38.589Z,45.00
2019-05-14T09:40:39.699Z,33.75
2019-05-14T09:41:38.781Z,28.12
2019-05-14T09:42:39.246Z,28.12
2019-05-14T09:43:39.240Z,28.12
2019-05-14T09:44:38.657Z,22.50
2019-05-14T09:45:38.828Z,22.50
2019-05-14T09:46:38.494Z,22.50
2019-05-14T09:47:38.758Z,16.88
2019-05-14T09:48:38.139Z,28.12
2019-05-14T09:49:38.924Z,39.38
2019-05-14T09:50:38.402Z,45.00
2019-05-14T09:51:38.442Z,45.00
2019-05-14T09:52:39.068Z,45.00
2019-05-14T09:53:38.366Z,45.00
2019-05-14T09:54:40.300Z,45.00
2019-05-14T09:55:38.861Z,45.00
2019-05-14T09:56:39.566Z,50.62
2019-05-14T09:57:38.769Z,50.62
2019-05-14T09:58:38.826Z,50.62
2019-05-14T09:59:38.447Z,50.62
2019-05-14T10:00:38.989Z,50.62
2019-05-14T10:01:38.355Z,50.62
2019-05-14T10:02:39.265Z,56.25
2019-05-14T10:03:39.126Z,33.75
2019-05-14T10:04:39.126Z,50.62
2019-05-14T10:05:37.641Z,33.75
2019-05-14T10:06:39.184Z,28.12
2019-05-14T10:07:39.200Z,45.00
2019-05-14T10:08:39.011Z,33.75
2019-05-14T10:09:39.058Z,28.12
2019-05-14T10:10:39.859Z,22.50
2019-05-14T10:11:38.392Z,22.50
2019-05-14T10:12:50.742Z,22.50
2019-05-14T10:13:39.243Z,22.50
2019-05-14T10:14:39.337Z,22.50
2019-05-14T10:15:39.039Z,16.88
2019-05-14T10:16:38.464Z,22.50
2019-05-14T10:17:39.199Z,22.50
2019-05-14T10:18:38.014Z,22.50
2019-05-14T10:19:39.380Z,22.50
2019-05-14T10:20:44.854Z,22.50
2019-05-14T10:21:38.842Z,22.50
2019-05-14T10:22:39.660Z,45.00
2019-05-14T10:23:38.907Z,28.12
2019-05-14T10:24:38.611Z,22.50
2019-05-14T10:25:40.279Z,22.50
2019-05-14T10:26:39.464Z,22.50
2019-05-14T10:27:37.368Z,16.88
2019-05-14T10:28:41.229Z,22.50
2019-05-14T10:29:39.376Z,22.50
2019-05-14T10:30:37.308Z,50.62
2019-05-14T10:31:39.560Z,50.62
2019-05-14T10:32:40.639Z,50.62
2019-05-14T10:33:37.279Z,50.62
2019-05-14T10:34:37.260Z,33.75
2019-05-14T10:35:39.195Z,50.62
2019-05-14T10:36:37.246Z,28.12
2019-05-14T10:37:39.831Z,28.12
2019-05-14T10:38:38.753Z,28.12
2019-05-14T10:39:39.146Z,22.50
2019-05-14T10:40:38.509Z,28.12
2019-05-14T10:41:38.472Z,22.50
2019-05-14T10:42:39.997Z,16.88
2019-05-14T10:43:39.233Z,39.38
2019-05-14T10:44:38.724Z,16.88
2019-05-14T10:45:38.520Z,45.00
2019-05-14T10:46:38.456Z,22.50
2019-05-14T10:47:38.849Z,28.12
2019-05-14T10:48:39.347Z,45.00
2019-05-14T10:49:38.621Z,45.00
2019-05-14T10:50:55.125Z,45.00
2019-05-14T10:51:38.871Z,45.00
2019-05-14T10:52:39.509Z,33.75
2019-05-14T10:53:37.070Z,50.62
2019-05-14T10:54:40.207Z,50.62
2019-05-14T10:55:38.680Z,50.62
2019-05-14T10:56:37.022Z,50.62
2019-05-14T10:57:37.016Z,50.62
2019-05-14T11:00:58.855Z,45.00
2019-05-14T11:01:56.669Z,22.50
2019-05-14T11:02:56.577Z,45.00
2019-05-14T11:03:56.602Z,45.00
2019-05-14T11:04:58.565Z,28.12
2019-05-14T11:05:58.620Z,22.50
2019-05-14T11:06:56.619Z,16.88
2019-05-14T11:07:58.542Z,16.88
2019-05-14T11:08:56.533Z,16.88
2019-05-14T11:09:56.506Z,16.88
2019-05-14T11:11:03.201Z,16.88
2019-05-14T11:11:58.328Z,16.88
2019-05-14T11:12:59.085Z,16.88
2019-05-14T11:13:56.476Z,16.88
2019-05-14T11:14:56.449Z,16.88
2019-05-14T11:15:59.259Z,16.88
2019-05-14T11:16:56.410Z,16.88
2019-05-14T11:17:56.397Z,16.88
2019-05-14T11:18:57.614Z,22.50
2019-05-14T11:19:58.545Z,22.50
2019-05-14T11:21:17.367Z,28.12
2019-05-14T11:21:57.886Z,45.00
2019-05-14T11:22:58.474Z,28.12
2019-05-14T11:23:58.527Z,22.50
2019-05-14T11:24:58.857Z,22.50
2019-05-14T11:25:58.128Z,22.50
2019-05-14T11:26:58.877Z,22.50
2019-05-14T11:27:58.462Z,22.50
2019-05-14T11:28:58.611Z,22.50
2019-05-14T11:29:58.531Z,28.12
2019-05-14T11:30:56.326Z,28.12
2019-05-14T11:31:56.242Z,28.12
2019-05-14T11:32:58.404Z,28.12
2019-05-14T11:33:58.889Z,28.12
2019-05-14T11:34:59.000Z,50.62
2019-05-14T11:35:58.495Z,45.00
2019-05-14T11:36:58.707Z,45.00
2019-05-14T11:37:58.669Z,33.75
2019-05-14T11:39:00.584Z,22.50
2019-05-14T11:39:58.098Z,22.50
2019-05-14T11:40:58.561Z,16.88
2019-05-14T11:41:58.746Z,16.88
2019-05-14T11:42:58.974Z,11.25
2019-05-14T11:43:56.119Z,11.25
2019-05-14T11:44:58.120Z,11.25
2019-05-14T11:45:58.906Z,11.25
2019-05-14T11:46:58.161Z,11.25
2019-05-14T11:47:58.209Z,11.25
2019-05-14T11:48:56.087Z,11.25
2019-05-14T11:49:59.013Z,11.25
2019-05-14T11:50:56.051Z,11.25
2019-05-14T11:52:04.205Z,11.25
2019-05-14T11:52:58.338Z,11.25
2019-05-14T11:53:58.575Z,16.88
2019-05-14T11:54:58.378Z,16.88
2019-05-14T11:55:58.558Z,16.88
2019-05-14T11:56:56.014Z,22.50
2019-05-14T11:57:58.038Z,22.50
2019-05-14T11:58:55.953Z,28.12
2019-05-14T11:59:58.079Z,28.12
2019-05-14T12:00:58.338Z,28.12
2019-05-14T12:01:59.126Z,28.12
2019-05-14T12:02:58.424Z,33.75
2019-05-14T12:03:55.901Z,33.75
2019-05-14T12:04:55.938Z,33.75
2019-05-14T12:05:58.443Z,28.12
2019-05-14T12:06:55.866Z,28.12
2019-05-14T12:07:55.868Z,28.12
2019-05-14T12:08:58.123Z,28.12
2019-05-14T12:09:55.831Z,28.12
2019-05-14T12:10:55.852Z,22.50
2019-05-14T12:11:58.509Z,28.12
2019-05-14T12:12:58.326Z,28.12
2019-05-14T12:13:55.840Z,45.00
2019-05-14T12:14:58.116Z,28.12
2019-05-14T12:15:55.773Z,39.38
2019-05-14T12:16:55.763Z,28.12
2019-05-14T12:17:55.756Z,33.75
2019-05-14T12:18:55.738Z,22.50
2019-05-14T12:19:55.747Z,22.50
2019-05-14T12:20:55.752Z,33.75
2019-05-14T12:22:03.667Z,22.50
2019-05-14T12:22:59.126Z,33.75
2019-05-14T12:24:03.109Z,33.75
2019-05-14T12:24:58.456Z,33.75
2019-05-14T12:25:58.551Z,33.75
2019-05-14T12:26:55.681Z,33.75
2019-05-14T12:27:55.689Z,33.75
2019-05-14T12:28:57.096Z,33.75
2019-05-14T12:29:55.704Z,33.75
2019-05-14T12:30:58.131Z,33.75
2019-05-14T12:31:55.619Z,33.75
2019-05-14T12:32:55.589Z,39.38
2019-05-14T12:33:58.228Z,39.38
2019-05-14T12:34:55.580Z,39.38
2019-05-14T12:35:55.561Z,45.00
2019-05-14T12:36:58.028Z,45.00
2019-05-14T12:37:55.572Z,45.00
2019-05-14T12:38:55.517Z,50.62
2019-05-14T12:39:55.510Z,33.75
2019-05-14T12:40:58.364Z,33.75
2019-05-14T12:41:55.485Z,33.75
2019-05-14T12:42:55.527Z,33.75
2019-05-14T12:43:55.495Z,33.75
2019-05-14T12:44:58.301Z,33.75
2019-05-14T12:45:55.442Z,45.00
2019-05-14T12:46:55.465Z,28.12
2019-05-14T12:47:55.526Z,33.75
2019-05-14T12:48:55.491Z,33.75
2019-05-14T12:49:55.435Z,33.75
2019-05-14T12:50:55.398Z,33.75
2019-05-14T12:51:55.375Z,33.75
2019-05-14T12:52:55.387Z,33.75
2019-05-14T12:53:55.374Z,33.75
2019-05-14T12:54:55.356Z,33.75
2019-05-14T12:55:55.388Z,33.75
2019-05-14T12:56:55.320Z,33.75
2019-05-14T12:57:55.313Z,33.75
2019-05-14T12:58:55.299Z,33.75
2019-05-14T12:59:55.343Z,33.75
2019-05-14T13:00:55.312Z,33.75
2019-05-14T13:01:55.268Z,33.75
2019-05-14T13:02:55.269Z,45.00
2019-05-14T13:03:55.245Z,39.38